Time;durP1;ratioP1;P1;durP2;ratioP2;P2;SDS_P1;SDS_P2;PMS_P1;PMS_P2;Temp;Humidity;BMP_temperature;BMP_pressure;BME280_temperature;BME280_humidity;BME280_pressure;Samples;Min_cycle;Max_cycle;Signal;HPM_P1;HPM_P2
2023/01/09 00:00:02;;;;;;;4.55;2.35;;;;;;;7.68;96.25;99606.06;6346279;28;20044;-78
2023/01/09 00:03:03;;;;;;;6.70;2.70;;;;;;;7.67;95.43;99612.16;6345342;28;20405;-79
2023/01/09 00:06:07;;;;;;;2.88;1.63;;;;;;;7.58;95.27;99595.34;6346427;28;20040;-80
2023/01/09 00:09:09;;;;;;;2.63;2.15;;;;;;;7.62;96.38;99598.59;6346381;28;20039;-79
2023/01/09 00:12:11;;;;;;;1.73;1.63;;;;;;;7.58;96.03;99595.34;6345151;28;20446;-80
2023/01/09 00:15:12;;;;;;;3.63;2.38;;;;;;;7.63;95.80;99595.91;6346372;28;20041;-80
2023/01/09 00:18:12;;;;;;;2.67;1.70;;;;;;;7.64;95.04;99586.38;6345191;28;20042;-79
2023/01/09 00:21:16;;;;;;;1.92;1.75;;;;;;;7.62;95.18;99580.44;6344860;28;20044;-80
2023/01/09 00:24:17;;;;;;;3.42;2.30;;;;;;;7.58;95.49;99576.34;6346064;28;20126;-78
2023/01/09 00:27:18;;;;;;;5.72;2.65;;;;;;;7.58;94.77;99571.13;6361812;27;20042;-78
2023/01/09 00:30:19;;;;;;;3.03;1.63;;;;;;;7.53;93.08;99576.56;6346076;28;20445;-79
2023/01/09 00:33:22;;;;;;;4.30;2.75;;;;;;;7.50;94.65;99570.72;6327633;28;20058;-80
2023/01/09 00:36:23;;;;;;;2.22;1.48;;;;;;;7.51;96.31;99567.19;6349238;27;20535;-80
2023/01/09 00:39:24;;;;;;;2.47;1.40;;;;;;;7.48;97.02;99563.03;6344598;28;20554;-81
2023/01/09 00:42:29;;;;;;;3.72;2.08;;;;;;;7.45;96.89;99552.78;6344393;28;20046;-80
2023/01/09 00:45:30;;;;;;;1.50;1.40;;;;;;;7.45;96.98;99556.25;6285624;28;1187240;-80
2023/01/09 00:48:32;;;;;;;2.17;1.92;;;;;;;7.51;96.12;99554.22;6345701;28;20038;-80
2023/01/09 00:51:35;;;;;;;7.75;1.98;;;;;;;7.42;95.14;99550.38;6346741;28;20040;-80
2023/01/09 00:54:40;;;;;;;13.10;2.05;;;;;;;7.46;94.42;99560.50;6345408;28;20093;-80
2023/01/09 00:57:41;;;;;;;3.47;2.08;;;;;;;7.51;92.85;99562.00;6346669;28;20138;-78
2023/01/09 01:00:42;;;;;;;3.88;2.50;;;;;;;7.65;92.60;99568.09;6345377;28;20475;-78
2023/01/09 01:03:43;;;;;;;2.83;2.33;;;;;;;7.60;91.81;99564.09;6362331;27;20051;-78
2023/01/09 01:10:15;;;;;;;2.58;1.63;;;;;;;7.63;91.95;99561.31;6346201;28;20076;-78
2023/01/09 01:13:16;;;;;;;3.92;2.17;;;;;;;7.58;90.11;99564.19;6346223;28;20391;-78
2023/01/09 01:16:17;;;;;;;2.45;1.73;;;;;;;7.67;90.36;99570.59;6344933;28;20119;-78
2023/01/09 01:19:20;;;;;;;4.68;1.77;;;;;;;7.62;90.61;99565.69;6344752;28;20069;-80
2023/01/09 01:22:21;;;;;;;7.60;1.92;;;;;;;7.56;91.18;99568.63;6345952;28;20071;-80
2023/01/09 01:25:24;;;;;;;2.72;1.58;;;;;;;7.62;90.97;99565.69;6345824;28;20040;-79
2023/01/09 01:28:28;;;;;;;3.95;2.42;;;;;;;7.54;91.91;99557.50;6345843;28;20047;-78
2023/01/09 01:31:28;;;;;;;5.50;1.40;;;;;;;7.45;92.53;99540.69;6344552;28;20043;-81
2023/01/09 01:34:29;;;;;;;2.88;2.08;;;;;;;7.50;93.87;99548.19;6345801;28;20043;-78
2023/01/09 01:37:30;;;;;;;2.70;1.83;;;;;;;7.42;93.62;99546.03;6361411;27;20114;-78
2023/01/09 01:40:31;;;;;;;9.38;1.90;;;;;;;7.34;93.80;99535.22;6344322;28;20429;-80
2023/01/09 01:43:53;;;;;;;3.15;1.85;;;;;;;7.39;93.02;99542.75;6344312;28;20142;-81
2023/01/09 01:46:55;;;;;;;2.38;1.40;;;;;;;7.41;93.27;99528.78;6345319;28;20066;-78
2023/01/09 01:49:57;;;;;;;2.65;1.70;;;;;;;7.45;92.78;99527.69;6345649;28;20039;-78
2023/01/09 01:53:26;;;;;;;1.58;1.48;;;;;;;7.50;91.48;99527.44;6326942;28;20663;-78
2023/01/09 01:56:44;;;;;;;5.53;1.77;;;;;;;7.45;91.07;99511.25;6343421;28;20529;-78
2023/01/09 01:59:49;;;;;;;2.25;1.63;;;;;;;7.50;90.98;99524.00;6344033;28;20040;-78
2023/01/09 02:02:50;;;;;;;1.98;1.50;;;;;;;7.44;90.85;99507.00;6345580;28;20035;-80
2023/01/09 02:05:51;;;;;;;4.30;2.13;;;;;;;7.47;91.50;99515.47;6345238;28;20039;-80
2023/01/09 02:08:52;;;;;;;2.42;1.23;;;;;;;7.45;91.18;99499.16;6345134;28;20047;-80
2023/01/09 02:11:56;;;;;;;3.42;1.83;;;;;;;7.48;91.90;99511.09;6344863;28;20040;-80
2023/01/09 02:15:10;;;;;;;1.73;1.45;;;;;;;7.37;91.47;99496.16;6343935;28;20086;-78
2023/01/09 02:18:18;;;;;;;2.13;1.75;;;;;;;7.41;90.93;99491.59;6344900;28;20039;-78
2023/01/09 02:21:32;;;;;;;6.82;1.95;;;;;;;7.49;90.35;99497.19;6343622;28;20036;-78
2023/01/09 02:25:10;;;;;;;3.55;1.65;;;;;;;7.45;91.81;99495.69;6364202;27;20043;-78
2023/01/09 02:28:29;;;;;;;4.25;2.10;;;;;;;7.36;91.72;99486.66;6370247;27;20035;-78
2023/01/09 02:31:42;;;;;;;2.58;1.15;;;;;;;7.39;90.81;99486.50;6351732;28;20071;-79
2023/01/09 02:35:18;;;;;;;2.42;2.22;;;;;;;7.41;90.85;99489.00;6370219;27;20146;-78
2023/01/09 02:38:28;;;;;;;3.30;1.60;;;;;;;7.44;90.22;99481.06;6368834;27;20448;-80
2023/01/09 02:41:37;;;;;;;3.78;1.85;;;;;;;7.44;90.67;99483.66;6370100;28;20039;-78
2023/01/09 02:44:41;;;;;;;2.33;1.35;;;;;;;7.37;90.57;99470.19;6369618;27;20035;-78
2023/01/09 02:47:44;;;;;;;3.85;1.38;;;;;;;7.39;90.77;99481.31;6368532;28;20051;-78
2023/01/09 02:51:20;;;;;;;2.38;1.33;;;;;;;7.41;90.25;99476.88;6369901;27;20062;-80
2023/01/09 02:54:36;;;;;;;2.70;1.48;;;;;;;7.40;90.08;99482.16;6370196;27;20054;-78
2023/01/09 02:57:56;;;;;;;2.70;1.70;;;;;;;7.45;90.00;99480.13;6369814;27;20526;-79
2023/01/09 03:01:03;;;;;;;3.67;1.55;;;;;;;7.45;89.93;99474.91;6368615;27;20035;-80
2023/01/09 03:04:18;;;;;;;3.60;1.30;;;;;;;7.44;90.44;99475.84;6369608;27;20050;-79
2023/01/09 03:07:33;;;;;;;3.63;2.00;;;;;;;7.47;90.25;99478.25;6368696;28;20114;-80
2023/01/09 03:10:44;;;;;;;3.55;1.23;;;;;;;7.38;91.51;99477.03;6368337;28;20486;-78
2023/01/09 03:13:57;;;;;;;4.30;1.98;;;;;;;7.40;90.09;99482.97;6368338;27;20039;-78
2023/01/09 03:17:02;;;;;;;2.80;1.13;;;;;;;7.43;90.39;99466.38;6368610;28;20077;-78
2023/01/09 03:20:06;;;;;;;3.10;1.77;;;;;;;7.46;90.55;99468.81;6368201;27;20070;-78
2023/01/09 03:23:07;;;;;;;1.77;1.30;;;;;;;7.51;88.50;99461.59;6368354;27;20046;-78
2023/01/09 03:26:10;;;;;;;2.55;1.10;;;;;;;7.52;89.17;99467.66;6354848;27;20054;-78
2023/01/09 03:29:11;;;;;;;2.10;1.35;;;;;;;7.54;89.13;99458.84;6371475;27;20471;-78
2023/01/09 03:32:12;;;;;;;3.90;1.58;;;;;;;7.54;89.36;99458.84;6348550;28;20043;-78
2023/01/09 03:35:13;;;;;;;2.60;1.50;;;;;;;7.51;89.40;99438.22;6347184;28;20038;-78
2023/01/09 03:38:14;;;;;;;2.67;1.85;;;;;;;7.57;88.88;99450.84;6347345;28;20035;-78
2023/01/09 03:41:15;;;;;;;1.58;1.20;;;;;;;7.45;89.45;99454.16;6347073;28;20564;-78
2023/01/09 03:44:15;;;;;;;1.90;0.80;;;;;;;7.34;89.34;99441.81;6348437;28;20495;-78
2023/01/09 03:47:16;;;;;;;1.38;1.13;;;;;;;7.41;89.48;99443.13;6346968;28;20506;-78
2023/01/09 03:50:19;;;;;;;2.28;1.17;;;;;;;7.41;89.31;99437.09;6346950;28;20510;-78
2023/01/09 03:53:25;;;;;;;2.95;1.33;;;;;;;7.41;89.71;99437.94;6348076;28;20043;-78
2023/01/09 03:56:26;;;;;;;4.93;2.13;;;;;;;7.37;89.96;99426.06;6346855;28;20136;-78
2023/01/09 03:59:27;;;;;;;2.08;1.25;;;;;;;7.40;90.10;99432.84;6329678;28;20050;-78
2023/01/09 04:02:28;;;;;;;2.30;1.58;;;;;;;7.41;89.79;99424.09;6329789;28;20072;-78
2023/01/09 04:05:28;;;;;;;1.92;1.38;;;;;;;7.43;89.48;99428.31;6346713;28;20039;-79
2023/01/09 04:08:29;;;;;;;2.08;1.48;;;;;;;7.43;89.34;99436.09;6349980;28;20044;-80
2023/01/09 04:11:30;;;;;;;3.53;1.85;;;;;;;7.47;89.51;99434.13;6348548;28;20479;-79
2023/01/09 04:14:31;;;;;;;4.57;1.88;;;;;;;7.47;89.68;99423.75;6349558;28;20403;-79
2023/01/09 04:17:32;;;;;;;2.55;1.48;;;;;;;7.45;89.09;99428.19;6349591;28;20100;-78
2023/01/09 04:20:33;;;;;;;1.17;1.00;;;;;;;7.39;89.58;99432.00;6359707;27;20119;-80
2023/01/09 04:23:34;;;;;;;2.25;1.20;;;;;;;7.38;89.83;99432.09;6361310;27;20040;-80
2023/01/09 04:26:34;;;;;;;1.00;0.90;;;;;;;7.34;90.43;99425.41;6371709;27;20092;-78
2023/01/09 04:29:35;;;;;;;2.95;1.75;;;;;;;7.35;90.32;99435.69;6371595;27;20035;-78
2023/01/09 04:32:36;;;;;;;1.77;1.55;;;;;;;7.21;91.16;99418.31;6373476;27;20035;-79
2023/01/09 04:35:37;;;;;;;2.63;1.65;;;;;;;7.44;90.50;99436.94;6372271;27;20043;-80
2023/01/09 04:38:38;;;;;;;1.17;1.08;;;;;;;7.52;90.10;99437.31;6373346;27;20035;-79
2023/01/09 04:41:47;;;;;;;2.47;1.75;;;;;;;7.45;89.94;99429.06;6372495;27;20039;-78
2023/01/09 04:44:52;;;;;;;1.67;1.25;;;;;;;7.50;90.23;99433.16;6371245;27;20062;-78
2023/01/09 04:47:53;;;;;;;1.48;1.25;;;;;;;7.45;90.74;99417.81;6372275;27;20492;-78
2023/01/09 04:50:54;;;;;;;3.45;1.83;;;;;;;7.52;90.57;99426.94;6374378;27;20479;-78
2023/01/09 04:53:54;;;;;;;1.52;1.17;;;;;;;7.39;90.92;99413.84;6374330;27;20035;-78
2023/01/09 04:56:55;;;;;;;3.65;1.48;;;;;;;7.47;91.29;99427.22;6374177;27;20144;-78
2023/01/09 04:59:56;;;;;;;2.60;1.42;;;;;;;7.39;90.87;99426.81;6373673;27;20550;-78
2023/01/09 05:02:57;;;;;;;2.58;1.50;;;;;;;7.43;91.14;99425.72;6372903;27;20565;-78
2023/01/09 05:05:58;;;;;;;3.15;1.80;;;;;;;7.38;91.63;99416.50;6373093;27;20043;-78
2023/01/09 05:09:00;;;;;;;4.35;1.70;;;;;;;7.33;92.50;99418.53;6373964;27;20043;-78
2023/01/09 05:12:02;;;;;;;2.78;1.55;;;;;;;7.41;92.66;99424.97;6355581;27;20051;-78
2023/01/09 05:15:03;;;;;;;2.15;1.17;;;;;;;7.35;91.93;99414.09;6373581;27;20062;-78
2023/01/09 05:18:06;;;;;;;1.83;1.45;;;;;;;7.42;91.66;99402.44;6365605;27;20024;-78
2023/01/09 05:21:07;;;;;;;7.72;2.72;;;;;;;7.41;91.46;99408.53;6348004;28;20085;-79
2023/01/09 05:24:10;;;;;;;2.60;1.88;;;;;;;7.44;91.71;99398.81;6347846;28;20047;-80
2023/01/09 05:27:11;;;;;;;2.45;1.88;;;;;;;7.40;93.10;99404.28;6347868;28;20035;-80
2023/01/09 05:30:13;;;;;;;3.53;2.20;;;;;;;7.40;92.32;99405.13;6364502;27;20046;-80
2023/01/09 05:33:14;;;;;;;3.17;1.92;;;;;;;7.35;92.77;99406.28;6353718;27;20043;-79
2023/01/09 05:36:15;;;;;;;5.78;2.40;;;;;;;7.35;92.80;99399.38;6371916;27;20043;-80
2023/01/09 05:39:16;;;;;;;3.05;1.80;;;;;;;7.33;93.39;99400.34;6373253;27;20043;-78
2023/01/09 05:42:17;;;;;;;7.82;1.48;;;;;;;7.33;93.29;99396.03;6371570;27;20039;-78
2023/01/09 05:45:20;;;;;;;2.78;1.80;;;;;;;7.30;92.47;99390.16;6346134;27;20492;-78
2023/01/09 05:48:20;;;;;;;2.95;1.98;;;;;;;7.39;92.25;99395.66;6347996;27;20035;-78
2023/01/09 05:51:21;;;;;;;3.08;1.80;;;;;;;7.43;92.23;99394.56;6369804;27;20130;-77
2023/01/09 05:54:22;;;;;;;1.63;1.30;;;;;;;7.39;90.34;99384.44;6367532;27;20115;-78
2023/01/09 05:57:27;;;;;;;2.17;1.80;;;;;;;7.42;90.25;99379.06;6366815;27;20071;-79
2023/01/09 06:00:28;;;;;;;1.48;1.20;;;;;;;7.48;89.95;99383.91;6358943;27;20043;-78
2023/01/09 06:03:29;;;;;;;2.00;1.48;;;;;;;7.42;89.18;99369.53;6327603;28;20047;-78
2023/01/09 06:06:30;;;;;;;2.65;1.83;;;;;;;7.44;89.39;99377.22;6346784;27;20044;-78
2023/01/09 06:09:34;;;;;;;2.95;2.22;;;;;;;7.44;88.53;99380.66;6344945;28;20525;-78
2023/01/09 06:12:35;;;;;;;2.50;1.98;;;;;;;7.55;88.13;99382.59;6352715;27;20047;-78
2023/01/09 06:15:36;;;;;;;2.80;1.80;;;;;;;7.38;89.25;99375.00;6369066;27;20043;-78
2023/01/09 06:18:36;;;;;;;1.92;1.38;;;;;;;7.41;87.93;99378.25;6369124;27;20051;-78
2023/01/09 06:21:39;;;;;;;2.25;1.40;;;;;;;7.38;87.74;99385.38;6344907;28;20130;-78
2023/01/09 06:24:40;;;;;;;2.22;1.38;;;;;;;7.36;86.83;99377.66;6329207;28;20055;-78
2023/01/09 06:27:41;;;;;;;2.00;1.20;;;;;;;7.44;87.30;99369.44;6370093;27;20039;-79
2023/01/09 06:30:42;;;;;;;2.55;1.70;;;;;;;7.39;86.49;99366.25;6369043;27;20475;-79
2023/01/09 06:33:43;;;;;;;2.10;1.75;;;;;;;7.38;87.16;99359.41;6359027;27;20074;-78
2023/01/09 06:36:43;;;;;;;1.55;1.27;;;;;;;7.48;86.55;99347.56;6352296;28;20448;-78
2023/01/09 06:39:44;;;;;;;1.50;1.38;;;;;;;7.46;86.89;99347.66;6341987;28;20059;-78
2023/01/09 06:42:46;;;;;;;3.17;1.70;;;;;;;7.39;86.79;99361.06;6343467;28;20035;-78
2023/01/09 06:45:47;;;;;;;3.42;1.25;;;;;;;7.35;86.23;99351.78;6342159;28;20051;-79
2023/01/09 06:48:48;;;;;;;1.60;1.10;;;;;;;7.33;86.27;99353.66;6343491;28;20110;-79
2023/01/09 06:51:50;;;;;;;2.97;1.90;;;;;;;7.39;86.54;99361.94;6342136;28;20054;-79
2023/01/09 06:54:50;;;;;;;3.55;2.25;;;;;;;7.41;86.17;99362.69;6342540;28;20088;-79
2023/01/09 06:57:52;;;;;;;5.55;2.63;;;;;;;7.44;86.01;99366.84;6344436;28;20063;-79
2023/01/09 07:00:57;;;;;;;4.53;1.50;;;;;;;7.46;85.04;99370.19;6347435;28;20047;-78
2023/01/09 07:03:57;;;;;;;2.80;1.83;;;;;;;7.55;85.38;99374.81;6347936;28;20479;-78
2023/01/09 07:06:58;;;;;;;3.10;2.08;;;;;;;7.47;85.68;99371.84;6347817;28;20101;-79
2023/01/09 07:09:59;;;;;;;5.57;3.17;;;;;;;7.54;84.95;99365.38;6347753;28;20050;-79
2023/01/09 07:13:00;;;;;;;3.20;1.80;;;;;;;7.49;84.68;99371.75;6347719;28;20032;-79
2023/01/09 07:16:02;;;;;;;3.17;2.05;;;;;;;7.50;84.28;99365.66;6364776;27;20039;-78
2023/01/09 07:19:02;;;;;;;3.33;1.98;;;;;;;7.57;84.48;99364.34;6347615;28;20103;-79
2023/01/09 07:22:03;;;;;;;6.50;2.38;;;;;;;7.56;84.10;99352.31;6330452;28;20056;-79
2023/01/09 07:25:05;;;;;;;3.10;1.85;;;;;;;7.53;84.53;99355.06;6348630;28;20047;-78
2023/01/09 07:28:05;;;;;;;2.40;1.70;;;;;;;7.56;84.57;99340.16;6347486;28;20439;-78
2023/01/09 07:31:07;;;;;;;3.10;2.17;;;;;;;7.58;85.00;99347.88;6348527;28;20047;-79
2023/01/09 07:34:07;;;;;;;3.90;2.22;;;;;;;7.54;84.09;99342.00;6347133;28;20044;-79
2023/01/09 07:37:08;;;;;;;4.00;2.10;;;;;;;7.57;82.48;99348.78;6329996;28;20418;-79
2023/01/09 07:40:09;;;;;;;3.53;1.80;;;;;;;7.55;82.98;99337.63;6346953;28;20530;-78
2023/01/09 07:43:10;;;;;;;2.72;1.75;;;;;;;7.60;82.94;99339.03;6348101;28;20173;-78
2023/01/09 07:46:11;;;;;;;3.45;2.22;;;;;;;7.72;82.72;99340.06;6346519;28;20047;-78
2023/01/09 07:49:12;;;;;;;2.83;1.65;;;;;;;7.75;83.10;99336.44;6347978;28;20475;-78
2023/01/09 07:52:13;;;;;;;2.20;1.60;;;;;;;7.77;82.26;99332.81;6348005;28;20506;-78
2023/01/09 07:55:14;;;;;;;2.55;1.42;;;;;;;7.85;82.84;99327.16;6346518;28;20043;-79
2023/01/09 07:58:15;;;;;;;2.28;1.23;;;;;;;7.77;82.11;99321.63;6346561;28;20048;-79
2023/01/09 08:01:16;;;;;;;1.33;1.20;;;;;;;7.98;81.23;99327.25;6347607;28;20070;-80
2023/01/09 08:04:17;;;;;;;1.50;1.27;;;;;;;7.92;81.45;99319.84;6346510;28;20043;-79
2023/01/09 08:07:18;;;;;;;3.13;1.48;;;;;;;7.93;81.29;99318.88;6346384;28;20035;-79
2023/01/09 08:10:19;;;;;;;4.65;1.70;;;;;;;8.05;80.38;99318.13;6328883;28;20118;-79
2023/01/09 08:13:20;;;;;;;1.77;1.38;;;;;;;8.14;80.94;99325.38;6347527;28;20044;-79
2023/01/09 08:16:21;;;;;;;3.22;1.90;;;;;;;8.18;80.90;99326.00;6347342;28;20046;-79
2023/01/09 08:19:22;;;;;;;4.05;2.88;;;;;;;8.08;81.40;99320.53;6346233;28;20402;-79
2023/01/09 08:22:23;;;;;;;2.53;1.83;;;;;;;8.06;81.29;99319.81;6347292;28;20035;-79
2023/01/09 08:25:24;;;;;;;1.48;1.02;;;;;;;7.99;80.39;99310.72;6345886;28;20816;-79
2023/01/09 08:28:27;;;;;;;3.55;1.58;;;;;;;8.17;80.46;99312.16;6345959;28;20046;-79
2023/01/09 08:31:28;;;;;;;3.60;1.70;;;;;;;7.99;80.58;99282.13;6345865;28;20044;-79
2023/01/09 08:34:29;;;;;;;6.35;1.45;;;;;;;8.21;81.36;99305.84;6345839;28;20046;-79
2023/01/09 08:37:32;;;;;;;1.80;1.42;;;;;;;8.31;80.89;99298.31;6345616;28;20044;-78
2023/01/09 08:40:33;;;;;;;2.80;1.90;;;;;;;8.34;79.48;99295.53;6345769;28;20063;-78
2023/01/09 08:47:07;;;;;;;2.35;1.80;;;;;;;8.42;79.45;99292.44;6322786;28;20418;-79
2023/01/09 08:50:12;;;;;;;3.20;2.00;;;;;;;8.56;79.26;99294.16;6346838;28;20071;-78
2023/01/09 08:53:14;;;;;;;2.10;1.60;;;;;;;8.60;76.65;99291.25;6346614;28;20074;-80
2023/01/09 08:56:14;;;;;;;4.20;2.20;;;;;;;8.71;77.46;99284.53;6345204;28;20046;-79
2023/01/09 08:59:18;;;;;;;3.95;1.58;;;;;;;8.70;77.08;99286.31;6345082;28;20047;-79
2023/01/09 09:02:19;;;;;;;1.70;1.48;;;;;;;8.76;76.59;99285.06;6346329;28;20044;-80
2023/01/09 09:05:22;;;;;;;3.05;1.52;;;;;;;8.75;77.02;99288.59;6345019;28;20035;-79
2023/01/09 09:08:22;;;;;;;;;;;;;;;8.88;76.42;99287.69;6346820;28;20048;-79
2023/01/09 09:11:23;;;;;;;1.65;0.98;;;;;;;8.79;75.93;99279.66;6345048;28;19951;-80
2023/01/09 09:17:45;;;;;;;1.48;1.35;;;;;;;8.85;75.26;99269.69;6345917;28;20044;-78
2023/01/09 09:20:46;;;;;;;2.28;1.60;;;;;;;8.86;74.36;99268.75;6344284;28;20491;-78
2023/01/09 09:23:47;;;;;;;3.75;1.20;;;;;;;8.93;75.75;99265.75;6345532;28;20123;-78
2023/01/09 09:26:48;;;;;;;2.65;1.55;;;;;;;8.97;75.78;99259.41;6345589;28;20117;-78
2023/01/09 09:29:49;;;;;;;5.22;1.40;;;;;;;9.12;74.80;99262.72;6344397;28;20119;-79
2023/01/09 09:32:50;;;;;;;2.08;1.30;;;;;;;9.04;74.32;99248.47;6344360;28;20040;-78
2023/01/09 09:35:50;;;;;;;3.70;1.73;;;;;;;9.05;73.23;99246.69;6344083;28;20046;-78
2023/01/09 09:38:54;;;;;;;3.42;2.10;;;;;;;9.13;74.02;99254.81;6345266;28;20035;-78
2023/01/09 09:45:39;;;;;;;2.03;1.60;;;;;;;9.18;74.03;99249.31;6345100;28;20059;-79
2023/01/09 09:48:51;;;;;;;2.78;1.73;;;;;;;9.39;73.13;99249.59;6327075;28;20142;-78
2023/01/09 09:52:09;;;;;;;4.90;2.47;;;;;;;9.35;73.17;99242.94;6345312;28;20047;-80
2023/01/09 09:55:17;;;;;;;6.75;3.45;;;;;;;9.45;73.51;99238.75;6345210;28;20092;-79
2023/01/09 09:58:37;;;;;;;1.70;1.17;;;;;;;9.38;73.45;99246.16;6343820;28;20050;-79
2023/01/09 10:02:04;;;;;;;6.72;1.75;;;;;;;9.43;72.36;99251.06;6343888;28;20459;-79
2023/01/09 10:05:13;;;;;;;2.05;1.50;;;;;;;9.35;71.99;99242.94;6344673;28;20063;-80
2023/01/09 10:08:52;;;;;;;4.82;1.40;;;;;;;9.43;72.35;99249.31;6345025;28;20070;-79
2023/01/09 10:12:14;;;;;;;1.63;1.15;;;;;;;9.46;71.10;99250.84;6352336;27;20506;-79
2023/01/09 10:15:27;;;;;;;4.75;2.00;;;;;;;9.44;72.72;99229.28;6343484;28;20047;-78
2023/01/09 10:19:00;;;;;;;3.35;1.58;;;;;;;9.52;71.05;99227.00;6344680;28;20048;-78
2023/01/09 10:22:25;;;;;;;2.83;1.75;;;;;;;9.48;72.11;99221.16;6320025;28;20062;-78
2023/01/09 10:25:55;;;;;;;5.05;2.13;;;;;;;9.51;71.98;99214.06;6344482;28;20419;-79
2023/01/09 10:29:18;;;;;;;4.88;1.38;;;;;;;9.52;72.73;99208.75;6341089;28;20414;-78
2023/01/09 10:32:38;;;;;;;1.33;0.98;;;;;;;9.52;72.49;99202.72;6343674;28;20499;-80
2023/01/09 10:36:19;;;;;;;1.48;1.20;;;;;;;9.53;73.51;99200.00;6348686;28;20047;-79
2023/01/09 10:39:34;;;;;;;1.35;0.90;;;;;;;9.47;73.24;99200.41;6349790;28;20043;-78
2023/01/09 10:42:48;;;;;;;1.98;1.40;;;;;;;9.76;74.02;99200.16;6348289;28;20040;-79
2023/01/09 10:45:53;;;;;;;3.63;1.73;;;;;;;9.83;72.43;99197.00;6348467;28;20059;-79
2023/01/09 10:48:59;;;;;;;1.73;1.23;;;;;;;9.84;73.41;99187.41;6348278;28;20122;-79
2023/01/09 10:52:12;;;;;;;3.78;1.98;;;;;;;9.89;72.73;99178.31;6348621;28;20475;-79
2023/01/09 10:55:24;;;;;;;5.50;1.65;;;;;;;9.76;71.53;99189.72;6348235;28;20044;-80
2023/01/09 10:58:25;;;;;;;2.70;1.55;;;;;;;9.74;73.13;99182.03;6349301;28;20043;-80
2023/01/09 11:01:37;;;;;;;3.78;1.63;;;;;;;9.81;73.44;99167.63;6348049;28;20118;-78
2023/01/09 11:04:42;;;;;;;3.00;1.83;;;;;;;9.79;74.22;99166.06;6348079;28;20036;-78
2023/01/09 11:07:48;;;;;;;4.47;1.60;;;;;;;9.83;74.19;99170.94;6347953;28;20040;-78
2023/01/09 11:10:54;;;;;;;2.47;1.63;;;;;;;9.86;74.17;99157.72;6347877;28;20131;-79
2023/01/09 11:14:15;;;;;;;3.72;1.98;;;;;;;9.91;74.23;99162.59;6347858;28;20063;-78
2023/01/09 11:17:25;;;;;;;7.97;2.80;;;;;;;9.88;75.48;99155.81;6348695;28;20042;-79
2023/01/09 11:20:28;;;;;;;4.85;2.67;;;;;;;9.78;75.53;99159.19;6347557;28;20047;-78
2023/01/09 11:23:32;;;;;;;3.25;2.08;;;;;;;9.72;75.19;99155.28;6347589;28;20595;-79
2023/01/09 11:26:34;;;;;;;3.70;2.58;;;;;;;9.74;75.98;99142.97;6348576;27;20055;-78
2023/01/09 11:29:34;;;;;;;4.00;1.90;;;;;;;9.75;76.17;99144.63;6336748;28;20047;-78
2023/01/09 11:32:35;;;;;;;2.67;1.77;;;;;;;9.81;75.02;99132.94;6328406;28;20040;-79
2023/01/09 11:35:36;;;;;;;2.40;1.35;;;;;;;9.80;73.91;99134.72;6349157;28;20071;-79
2023/01/09 11:39:01;;;;;;;2.63;1.55;;;;;;;9.93;75.52;99126.00;6364892;27;20056;-79
2023/01/09 11:42:05;;;;;;;3.28;1.77;;;;;;;9.88;74.22;99126.31;6347470;28;20505;-79
2023/01/09 11:45:23;;;;;;;2.63;1.77;;;;;;;9.93;74.59;99123.41;6346651;28;20423;-79
2023/01/09 11:48:29;;;;;;;6.50;1.90;;;;;;;10.11;74.62;99126.41;6364742;27;20047;-78
2023/01/09 11:51:33;;;;;;;3.78;2.03;;;;;;;10.22;74.96;99129.88;6347747;28;20251;-78
2023/01/09 11:54:36;;;;;;;2.72;1.58;;;;;;;9.99;75.54;99108.13;6347626;28;20547;-80
2023/01/09 11:57:37;;;;;;;2.08;1.75;;;;;;;10.00;75.00;99120.19;6346849;28;20134;-78
2023/01/09 12:00:53;;;;;;;2.03;1.30;;;;;;;9.92;75.94;99125.16;6347314;28;20046;-80
2023/01/09 12:04:03;;;;;;;2.63;1.58;;;;;;;9.82;74.73;99121.53;6347452;28;20487;-78
2023/01/09 12:07:30;;;;;;;2.70;1.92;;;;;;;9.82;76.24;99124.16;6347263;28;20032;-79
2023/01/09 12:10:41;;;;;;;2.95;2.03;;;;;;;9.75;75.49;99118.56;6346675;28;20070;-78
2023/01/09 12:14:06;;;;;;;4.18;2.03;;;;;;;9.54;76.02;99110.53;6347930;28;20043;-79
2023/01/09 12:17:18;;;;;;;3.63;2.35;;;;;;;9.50;76.41;99118.69;6347843;28;20114;-78
2023/01/09 12:20:52;;;;;;;2.75;1.58;;;;;;;9.46;77.17;99105.03;6346534;28;20096;-79
2023/01/09 12:24:08;;;;;;;1.65;1.50;;;;;;;9.43;78.13;99111.31;6344414;28;20056;-79
2023/01/09 12:27:21;;;;;;;3.97;2.25;;;;;;;9.42;77.32;99104.41;6363170;27;20120;-79
2023/01/09 12:30:33;;;;;;;3.33;2.22;;;;;;;9.59;78.67;99105.81;6347297;28;20126;-78
2023/01/09 12:33:51;;;;;;;4.25;2.03;;;;;;;9.54;77.28;99101.88;6345774;28;20040;-78
2023/01/09 12:36:51;;;;;;;3.17;2.20;;;;;;;9.55;79.19;99099.16;6328533;28;20058;-80
2023/01/09 12:40:15;;;;;;;4.03;2.47;;;;;;;9.47;78.62;99099.72;6345681;28;20035;-79
2023/01/09 12:43:39;;;;;;;5.22;2.67;;;;;;;9.42;78.76;99088.78;6340032;28;20051;-80
2023/01/09 12:46:51;;;;;;;4.10;2.35;;;;;;;9.41;78.42;99100.16;6339811;28;20503;-78
2023/01/09 12:50:20;;;;;;;7.10;3.20;;;;;;;9.44;78.23;99093.91;6345384;28;20073;-80
2023/01/09 12:53:39;;;;;;;5.03;2.92;;;;;;;9.54;78.56;99086.28;6346713;28;20055;-79
2023/01/09 12:56:47;;;;;;;3.45;2.10;;;;;;;9.57;79.18;99088.63;6344317;28;20040;-78
2023/01/09 12:59:56;;;;;;;5.13;2.83;;;;;;;9.60;79.22;99073.63;6345181;28;20056;-79
2023/01/09 13:03:12;;;;;;;3.90;2.40;;;;;;;9.51;79.37;99084.69;6328118;28;20503;-80
2023/01/09 13:06:16;;;;;;;2.75;1.88;;;;;;;9.40;80.51;99072.44;6345081;28;20509;-80
2023/01/09 13:09:39;;;;;;;11.32;3.50;;;;;;;9.40;81.32;99071.63;6346315;28;20165;-80
2023/01/09 13:12:42;;;;;;;5.15;2.45;;;;;;;9.38;81.93;99063.09;6345112;28;20122;-80
2023/01/09 13:15:49;;;;;;;5.80;2.80;;;;;;;9.54;80.64;99068.84;6346169;28;20544;-79
2023/01/09 13:19:10;;;;;;;2.90;2.08;;;;;;;9.53;81.08;99064.56;6344765;28;20044;-80
2023/01/09 13:22:13;;;;;;;2.75;1.88;;;;;;;9.55;80.92;99067.06;6327696;28;20075;-79
2023/01/09 13:25:56;;;;;;;3.90;2.40;;;;;;;9.26;81.57;99070.81;6345950;28;20035;-80
2023/01/09 13:29:06;;;;;;;4.38;2.75;;;;;;;9.24;82.14;99056.25;6327252;28;20075;-78
2023/01/09 13:32:19;;;;;;;4.25;2.50;;;;;;;9.33;81.34;99063.44;6345852;28;20066;-78
2023/01/09 13:35:20;;;;;;;6.43;2.85;;;;;;;9.26;82.68;99070.00;6344535;28;20051;-79
2023/01/09 13:38:23;;;;;;;6.32;2.80;;;;;;;9.28;83.01;99065.53;6344117;28;20504;-78
2023/01/09 13:45:08;;;;;;;6.07;2.97;;;;;;;9.05;86.87;99056.75;6343985;28;20055;-79
2023/01/09 13:48:16;;;;;;;8.27;3.03;;;;;;;9.11;87.56;99052.88;6343812;28;20055;-78
2023/01/09 13:51:42;;;;;;;4.07;2.65;;;;;;;8.98;88.15;99045.94;6326942;28;20081;-79
2023/01/09 13:54:46;;;;;;;4.72;2.85;;;;;;;9.00;88.60;99051.06;6327499;28;20352;-79
2023/01/09 13:58:06;;;;;;;4.10;2.92;;;;;;;8.97;88.84;99044.25;6343748;27;20487;-78
2023/01/09 14:01:23;;;;;;;5.00;2.80;;;;;;;9.01;88.44;99053.53;6343783;28;20096;-78
2023/01/09 14:04:39;;;;;;;3.50;2.75;;;;;;;9.00;88.54;99053.66;6343949;28;20039;-78
2023/01/09 14:07:47;;;;;;;4.25;2.88;;;;;;;9.02;88.51;99055.19;6344833;28;20046;-80
2023/01/09 14:10:51;;;;;;;5.38;2.72;;;;;;;8.94;88.09;99052.31;6326453;28;20064;-78
2023/01/09 14:13:59;;;;;;;4.82;2.65;;;;;;;8.96;88.31;99068.63;6344842;28;20383;-78
2023/01/09 14:17:02;;;;;;;4.95;3.25;;;;;;;8.85;89.49;99048.59;6343499;28;20043;-80
2023/01/09 14:20:25;;;;;;;6.10;3.58;;;;;;;8.91;90.64;99057.72;6343141;28;20415;-79
2023/01/09 14:23:33;;;;;;;5.60;3.78;;;;;;;8.75;92.34;99052.75;6326730;28;20055;-79
2023/01/09 14:26:43;;;;;;;4.78;3.00;;;;;;;8.78;92.90;99051.72;6344774;28;20054;-79
2023/01/09 14:29:46;;;;;;;8.38;3.25;;;;;;;8.71;92.71;99043.50;6343316;28;20047;-79
2023/01/09 14:33:14;;;;;;;4.30;3.03;;;;;;;8.70;93.86;99047.03;6343486;28;20047;-79
2023/01/09 14:36:23;;;;;;;7.90;3.00;;;;;;;8.71;94.33;99040.91;6343366;28;20066;-79
2023/01/09 14:39:25;;;;;;;10.50;4.43;;;;;;;8.64;95.18;99037.06;6343193;28;20046;-78
2023/01/09 14:42:29;;;;;;;4.70;3.13;;;;;;;8.63;96.55;99038.81;6326058;28;20055;-78
2023/01/09 14:45:34;;;;;;;9.52;4.90;;;;;;;8.64;97.48;99032.69;6343284;28;20410;-78
2023/01/09 14:48:37;;;;;;;9.82;5.60;;;;;;;8.55;97.59;99035.94;6343366;28;20483;-78
2023/01/09 14:51:44;;;;;;;4.90;3.35;;;;;;;8.52;99.79;99040.50;6343156;28;20044;-78
2023/01/09 14:54:49;;;;;;;7.60;3.78;;;;;;;8.55;99.56;99038.53;6343114;28;20055;-80
2023/01/09 14:57:53;;;;;;;12.15;3.83;;;;;;;8.56;100.00;99041.94;6342990;28;20058;-78
2023/01/09 15:00:57;;;;;;;8.43;4.03;;;;;;;8.47;100.00;99028.66;6342846;28;20046;-79
2023/01/09 15:04:03;;;;;;;12.60;4.88;;;;;;;8.44;100.00;99025.41;6343091;28;20044;-79